sensor_id;sensor_type;location;lat;lon;timestamp;P1;durP1;ratioP1;P2;durP2;ratioP2
21438;SDS011;10880;50.302;18.736;2023-03-03T00:00:28;80.03;;;28.20;;
21438;SDS011;10880;50.302;18.736;2023-03-03T00:02:56;62.60;;;22.47;;
21438;SDS011;10880;50.302;18.736;2023-03-03T00:05:27;52.63;;;18.47;;
21438;SDS011;10880;50.302;18.736;2023-03-03T00:07:56;74.13;;;25.63;;
21438;SDS011;10880;50.302;18.736;2023-03-03T00:10:23;80.13;;;27.63;;
21438;SDS011;10880;50.302;18.736;2023-03-03T00:12:50;61.77;;;21.23;;
21438;SDS011;10880;50.302;18.736;2023-03-03T00:15:18;67.50;;;22.30;;
21438;SDS011;10880;50.302;18.736;2023-03-03T00:17:46;99.53;;;33.67;;
21438;SDS011;10880;50.302;18.736;2023-03-03T00:25:56;64.63;;;23.50;;
21438;SDS011;10880;50.302;18.736;2023-03-03T00:30:58;54.63;;;19.40;;
21438;SDS011;10880;50.302;18.736;2023-03-03T00:36:43;101.43;;;34.60;;
21438;SDS011;10880;50.302;18.736;2023-03-03T00:38:53;72.13;;;24.97;;
21438;SDS011;10880;50.302;18.736;2023-03-03T00:41:21;51.13;;;19.57;;
21438;SDS011;10880;50.302;18.736;2023-03-03T00:43:50;39.57;;;15.47;;
21438;SDS011;10880;50.302;18.736;2023-03-03T00:46:18;41.83;;;15.77;;
21438;SDS011;10880;50.302;18.736;2023-03-03T00:48:47;47.40;;;18.20;;
21438;SDS011;10880;50.302;18.736;2023-03-03T00:53:49;60.97;;;20.27;;
21438;SDS011;10880;50.302;18.736;2023-03-03T00:56:16;48.77;;;16.57;;
21438;SDS011;10880;50.302;18.736;2023-03-03T00:58:43;44.30;;;17.20;;
21438;SDS011;10880;50.302;18.736;2023-03-03T01:01:11;52.53;;;20.27;;
21438;SDS011;10880;50.302;18.736;2023-03-03T01:03:44;48.57;;;18.03;;
21438;SDS011;10880;50.302;18.736;2023-03-03T01:06:10;41.70;;;15.73;;
21438;SDS011;10880;50.302;18.736;2023-03-03T01:08:37;53.37;;;19.13;;
21438;SDS011;10880;50.302;18.736;2023-03-03T01:11:09;68.77;;;25.03;;
21438;SDS011;10880;50.302;18.736;2023-03-03T01:13:39;60.97;;;22.47;;
21438;SDS011;10880;50.302;18.736;2023-03-03T01:16:09;71.20;;;27.27;;
21438;SDS011;10880;50.302;18.736;2023-03-03T01:18:35;73.40;;;26.07;;
21438;SDS011;10880;50.302;18.736;2023-03-03T01:21:02;95.27;;;33.80;;
21438;SDS011;10880;50.302;18.736;2023-03-03T01:23:31;85.63;;;30.47;;
21438;SDS011;10880;50.302;18.736;2023-03-03T01:25:58;73.30;;;25.40;;
21438;SDS011;10880;50.302;18.736;2023-03-03T01:28:25;52.40;;;19.63;;
21438;SDS011;10880;50.302;18.736;2023-03-03T01:30:51;46.83;;;17.17;;
21438;SDS011;10880;50.302;18.736;2023-03-03T01:33:18;42.23;;;15.20;;
21438;SDS011;10880;50.302;18.736;2023-03-03T01:35:46;39.97;;;14.93;;
21438;SDS011;10880;50.302;18.736;2023-03-03T01:38:13;38.77;;;14.53;;
21438;SDS011;10880;50.302;18.736;2023-03-03T01:40:40;42.47;;;14.97;;
21438;SDS011;10880;50.302;18.736;2023-03-03T01:43:11;36.10;;;13.97;;
21438;SDS011;10880;50.302;18.736;2023-03-03T01:48:14;63.50;;;22.13;;
21438;SDS011;10880;50.302;18.736;2023-03-03T01:50:56;45.47;;;17.70;;
21438;SDS011;10880;50.302;18.736;2023-03-03T01:53:42;43.23;;;15.40;;
21438;SDS011;10880;50.302;18.736;2023-03-03T01:56:14;38.80;;;14.80;;
21438;SDS011;10880;50.302;18.736;2023-03-03T01:58:45;54.40;;;20.03;;
21438;SDS011;10880;50.302;18.736;2023-03-03T02:01:21;47.37;;;18.57;;
21438;SDS011;10880;50.302;18.736;2023-03-03T02:03:51;49.07;;;16.77;;
21438;SDS011;10880;50.302;18.736;2023-03-03T02:06:19;39.93;;;14.50;;
21438;SDS011;10880;50.302;18.736;2023-03-03T02:08:56;60.10;;;19.37;;
21438;SDS011;10880;50.302;18.736;2023-03-03T02:11:33;50.30;;;17.33;;
21438;SDS011;10880;50.302;18.736;2023-03-03T02:14:02;62.53;;;20.50;;
21438;SDS011;10880;50.302;18.736;2023-03-03T02:16:29;83.67;;;27.67;;
21438;SDS011;10880;50.302;18.736;2023-03-03T02:18:56;110.43;;;36.70;;
21438;SDS011;10880;50.302;18.736;2023-03-03T02:21:23;117.33;;;39.67;;
21438;SDS011;10880;50.302;18.736;2023-03-03T02:23:59;121.63;;;40.33;;
21438;SDS011;10880;50.302;18.736;2023-03-03T02:26:33;137.70;;;44.30;;
21438;SDS011;10880;50.302;18.736;2023-03-03T02:29:07;111.73;;;37.27;;
21438;SDS011;10880;50.302;18.736;2023-03-03T02:31:36;75.37;;;27.13;;
21438;SDS011;10880;50.302;18.736;2023-03-03T02:34:04;102.17;;;34.20;;
21438;SDS011;10880;50.302;18.736;2023-03-03T02:36:37;98.93;;;35.10;;
21438;SDS011;10880;50.302;18.736;2023-03-03T02:39:06;65.80;;;22.67;;
21438;SDS011;10880;50.302;18.736;2023-03-03T02:41:41;49.20;;;18.37;;
21438;SDS011;10880;50.302;18.736;2023-03-03T02:44:38;94.83;;;31.03;;
21438;SDS011;10880;50.302;18.736;2023-03-03T02:47:04;100.47;;;35.57;;
21438;SDS011;10880;50.302;18.736;2023-03-03T02:49:32;95.53;;;32.10;;
21438;SDS011;10880;50.302;18.736;2023-03-03T02:52:01;71.73;;;25.07;;
21438;SDS011;10880;50.302;18.736;2023-03-03T02:54:29;67.97;;;23.63;;
21438;SDS011;10880;50.302;18.736;2023-03-03T02:56:58;102.73;;;36.40;;
21438;SDS011;10880;50.302;18.736;2023-03-03T02:59:26;93.17;;;33.03;;
21438;SDS011;10880;50.302;18.736;2023-03-03T03:01:54;76.00;;;26.67;;
21438;SDS011;10880;50.302;18.736;2023-03-03T03:04:25;96.23;;;34.33;;
21438;SDS011;10880;50.302;18.736;2023-03-03T03:06:53;110.77;;;39.53;;
21438;SDS011;10880;50.302;18.736;2023-03-03T03:09:21;81.10;;;29.07;;
21438;SDS011;10880;50.302;18.736;2023-03-03T03:11:52;63.07;;;22.17;;
21438;SDS011;10880;50.302;18.736;2023-03-03T03:14:22;48.50;;;17.63;;
21438;SDS011;10880;50.302;18.736;2023-03-03T03:16:50;40.47;;;14.97;;
21438;SDS011;10880;50.302;18.736;2023-03-03T03:19:17;43.80;;;15.33;;
21438;SDS011;10880;50.302;18.736;2023-03-03T03:21:44;37.20;;;13.73;;
21438;SDS011;10880;50.302;18.736;2023-03-03T03:24:11;38.87;;;13.93;;
21438;SDS011;10880;50.302;18.736;2023-03-03T03:26:41;34.67;;;13.90;;
21438;SDS011;10880;50.302;18.736;2023-03-03T03:29:08;45.00;;;16.37;;
21438;SDS011;10880;50.302;18.736;2023-03-03T03:31:36;40.77;;;15.17;;
21438;SDS011;10880;50.302;18.736;2023-03-03T03:34:04;67.80;;;23.37;;
21438;SDS011;10880;50.302;18.736;2023-03-03T03:36:30;75.97;;;27.53;;
21438;SDS011;10880;50.302;18.736;2023-03-03T03:38:57;94.47;;;34.23;;
21438;SDS011;10880;50.302;18.736;2023-03-03T03:41:23;122.83;;;41.13;;
21438;SDS011;10880;50.302;18.736;2023-03-03T03:43:50;86.73;;;30.97;;
21438;SDS011;10880;50.302;18.736;2023-03-03T03:46:16;124.43;;;40.63;;
21438;SDS011;10880;50.302;18.736;2023-03-03T03:48:43;105.03;;;32.97;;
21438;SDS011;10880;50.302;18.736;2023-03-03T03:51:12;69.87;;;22.47;;
21438;SDS011;10880;50.302;18.736;2023-03-03T03:53:40;56.17;;;20.03;;
21438;SDS011;10880;50.302;18.736;2023-03-03T03:56:06;45.90;;;17.23;;
21438;SDS011;10880;50.302;18.736;2023-03-03T03:58:33;60.10;;;19.37;;
21438;SDS011;10880;50.302;18.736;2023-03-03T04:01:04;65.17;;;23.10;;
21438;SDS011;10880;50.302;18.736;2023-03-03T04:03:33;86.87;;;26.77;;
21438;SDS011;10880;50.302;18.736;2023-03-03T04:06:03;82.17;;;29.13;;
21438;SDS011;10880;50.302;18.736;2023-03-03T04:08:29;121.13;;;38.43;;
21438;SDS011;10880;50.302;18.736;2023-03-03T04:10:56;113.10;;;37.87;;
21438;SDS011;10880;50.302;18.736;2023-03-03T04:13:23;121.50;;;40.63;;
21438;SDS011;10880;50.302;18.736;2023-03-03T04:15:53;130.53;;;43.17;;
21438;SDS011;10880;50.302;18.736;2023-03-03T04:18:20;92.27;;;30.40;;
21438;SDS011;10880;50.302;18.736;2023-03-03T04:20:46;70.30;;;24.90;;
21438;SDS011;10880;50.302;18.736;2023-03-03T04:23:15;112.27;;;39.23;;
21438;SDS011;10880;50.302;18.736;2023-03-03T04:25:42;128.17;;;45.03;;
21438;SDS011;10880;50.302;18.736;2023-03-03T04:28:13;130.20;;;42.17;;
21438;SDS011;10880;50.302;18.736;2023-03-03T04:30:41;81.83;;;28.30;;
21438;SDS011;10880;50.302;18.736;2023-03-03T04:33:08;56.50;;;21.07;;
21438;SDS011;10880;50.302;18.736;2023-03-03T04:35:38;54.50;;;20.67;;
21438;SDS011;10880;50.302;18.736;2023-03-03T04:38:05;108.93;;;36.70;;
21438;SDS011;10880;50.302;18.736;2023-03-03T04:40:34;116.17;;;42.60;;
21438;SDS011;10880;50.302;18.736;2023-03-03T04:43:01;95.83;;;33.60;;
21438;SDS011;10880;50.302;18.736;2023-03-03T04:45:29;80.07;;;30.07;;
21438;SDS011;10880;50.302;18.736;2023-03-03T04:47:56;116.00;;;41.17;;
21438;SDS011;10880;50.302;18.736;2023-03-03T04:50:23;108.77;;;38.30;;
21438;SDS011;10880;50.302;18.736;2023-03-03T04:52:49;71.57;;;25.80;;
21438;SDS011;10880;50.302;18.736;2023-03-03T04:55:16;53.30;;;19.67;;
21438;SDS011;10880;50.302;18.736;2023-03-03T04:57:45;41.63;;;16.43;;
21438;SDS011;10880;50.302;18.736;2023-03-03T05:00:12;37.90;;;14.30;;
21438;SDS011;10880;50.302;18.736;2023-03-03T05:02:39;38.30;;;14.93;;
21438;SDS011;10880;50.302;18.736;2023-03-03T05:05:07;44.73;;;16.83;;
21438;SDS011;10880;50.302;18.736;2023-03-03T05:07:38;39.37;;;16.30;;
21438;SDS011;10880;50.302;18.736;2023-03-03T05:10:06;47.07;;;17.90;;
21438;SDS011;10880;50.302;18.736;2023-03-03T05:12:33;42.90;;;16.53;;
21438;SDS011;10880;50.302;18.736;2023-03-03T05:14:59;42.93;;;16.00;;
21438;SDS011;10880;50.302;18.736;2023-03-03T05:17:26;42.33;;;15.47;;
21438;SDS011;10880;50.302;18.736;2023-03-03T05:19:52;41.33;;;16.33;;
21438;SDS011;10880;50.302;18.736;2023-03-03T05:22:19;31.10;;;12.43;;
21438;SDS011;10880;50.302;18.736;2023-03-03T05:24:45;27.57;;;11.67;;
21438;SDS011;10880;50.302;18.736;2023-03-03T05:27:14;25.47;;;10.77;;
21438;SDS011;10880;50.302;18.736;2023-03-03T05:29:41;24.80;;;10.40;;
21438;SDS011;10880;50.302;18.736;2023-03-03T05:32:08;25.43;;;10.70;;
21438;SDS011;10880;50.302;18.736;2023-03-03T05:34:34;28.17;;;11.27;;
21438;SDS011;10880;50.302;18.736;2023-03-03T05:37:01;24.07;;;10.60;;
21438;SDS011;10880;50.302;18.736;2023-03-03T05:39:28;26.60;;;10.63;;
21438;SDS011;10880;50.302;18.736;2023-03-03T05:41:55;32.07;;;13.40;;
21438;SDS011;10880;50.302;18.736;2023-03-03T05:44:21;33.87;;;13.27;;
21438;SDS011;10880;50.302;18.736;2023-03-03T05:46:48;27.87;;;11.73;;
21438;SDS011;10880;50.302;18.736;2023-03-03T05:49:14;38.20;;;15.53;;
21438;SDS011;10880;50.302;18.736;2023-03-03T05:51:41;40.90;;;17.07;;
21438;SDS011;10880;50.302;18.736;2023-03-03T05:54:07;39.93;;;15.93;;
21438;SDS011;10880;50.302;18.736;2023-03-03T05:56:34;38.80;;;15.13;;
21438;SDS011;10880;50.302;18.736;2023-03-03T05:59:00;26.73;;;11.37;;
21438;SDS011;10880;50.302;18.736;2023-03-03T06:01:27;30.57;;;13.00;;
21438;SDS011;10880;50.302;18.736;2023-03-03T06:03:54;36.00;;;14.77;;
21438;SDS011;10880;50.302;18.736;2023-03-03T06:06:21;33.43;;;14.07;;
21438;SDS011;10880;50.302;18.736;2023-03-03T06:08:47;45.80;;;16.70;;
21438;SDS011;10880;50.302;18.736;2023-03-03T06:11:14;46.57;;;17.53;;
21438;SDS011;10880;50.302;18.736;2023-03-03T06:13:43;49.00;;;18.57;;
21438;SDS011;10880;50.302;18.736;2023-03-03T06:16:10;46.87;;;16.03;;
21438;SDS011;10880;50.302;18.736;2023-03-03T06:18:36;28.67;;;12.10;;
21438;SDS011;10880;50.302;18.736;2023-03-03T06:21:03;29.40;;;11.57;;
21438;SDS011;10880;50.302;18.736;2023-03-03T06:23:29;35.30;;;13.70;;
21438;SDS011;10880;50.302;18.736;2023-03-03T06:25:56;47.20;;;15.43;;
21438;SDS011;10880;50.302;18.736;2023-03-03T06:28:23;60.73;;;19.30;;
21438;SDS011;10880;50.302;18.736;2023-03-03T06:30:55;52.23;;;18.70;;
21438;SDS011;10880;50.302;18.736;2023-03-03T06:33:22;44.30;;;17.17;;
21438;SDS011;10880;50.302;18.736;2023-03-03T06:35:49;37.77;;;14.47;;
21438;SDS011;10880;50.302;18.736;2023-03-03T06:38:16;25.00;;;10.23;;
21438;SDS011;10880;50.302;18.736;2023-03-03T06:40:43;21.80;;;9.17;;
21438;SDS011;10880;50.302;18.736;2023-03-03T06:43:11;16.57;;;7.60;;
21438;SDS011;10880;50.302;18.736;2023-03-03T06:45:38;17.40;;;7.50;;
21438;SDS011;10880;50.302;18.736;2023-03-03T06:48:06;16.00;;;6.70;;
21438;SDS011;10880;50.302;18.736;2023-03-03T06:50:32;15.23;;;7.50;;
21438;SDS011;10880;50.302;18.736;2023-03-03T06:53:12;16.40;;;6.87;;
21438;SDS011;10880;50.302;18.736;2023-03-03T06:55:40;14.27;;;5.70;;
21438;SDS011;10880;50.302;18.736;2023-03-03T06:58:11;16.87;;;6.90;;
21438;SDS011;10880;50.302;18.736;2023-03-03T07:00:40;25.30;;;9.50;;
21438;SDS011;10880;50.302;18.736;2023-03-03T07:03:15;17.00;;;7.47;;
21438;SDS011;10880;50.302;18.736;2023-03-03T07:05:43;13.57;;;6.03;;
21438;SDS011;10880;50.302;18.736;2023-03-03T07:08:17;24.47;;;9.70;;
21438;SDS011;10880;50.302;18.736;2023-03-03T07:10:46;21.37;;;9.43;;
21438;SDS011;10880;50.302;18.736;2023-03-03T07:15:51;13.00;;;6.60;;
21438;SDS011;10880;50.302;18.736;2023-03-03T07:18:53;17.93;;;7.30;;
21438;SDS011;10880;50.302;18.736;2023-03-03T07:21:20;13.57;;;5.67;;
21438;SDS011;10880;50.302;18.736;2023-03-03T07:23:48;15.37;;;6.83;;
21438;SDS011;10880;50.302;18.736;2023-03-03T07:26:24;18.37;;;7.57;;
21438;SDS011;10880;50.302;18.736;2023-03-03T07:28:59;19.20;;;7.50;;
21438;SDS011;10880;50.302;18.736;2023-03-03T07:31:28;15.27;;;6.97;;
21438;SDS011;10880;50.302;18.736;2023-03-03T07:34:12;12.73;;;5.63;;
21438;SDS011;10880;50.302;18.736;2023-03-03T07:36:51;13.10;;;6.93;;
21438;SDS011;10880;50.302;18.736;2023-03-03T07:42:42;13.33;;;6.10;;
21438;SDS011;10880;50.302;18.736;2023-03-03T07:44:57;26.73;;;10.63;;
21438;SDS011;10880;50.302;18.736;2023-03-03T07:47:34;20.90;;;8.40;;
21438;SDS011;10880;50.302;18.736;2023-03-03T07:50:15;24.43;;;10.37;;
21438;SDS011;10880;50.302;18.736;2023-03-03T07:52:58;33.97;;;13.10;;
21438;SDS011;10880;50.302;18.736;2023-03-03T07:55:33;27.77;;;11.93;;
21438;SDS011;10880;50.302;18.736;2023-03-03T07:58:21;29.73;;;11.83;;
21438;SDS011;10880;50.302;18.736;2023-03-03T08:03:53;23.30;;;9.07;;
21438;SDS011;10880;50.302;18.736;2023-03-03T08:06:39;22.67;;;7.97;;
21438;SDS011;10880;50.302;18.736;2023-03-03T08:11:52;18.27;;;7.73;;
21438;SDS011;10880;50.302;18.736;2023-03-03T08:14:29;22.50;;;9.00;;
21438;SDS011;10880;50.302;18.736;2023-03-03T08:16:58;31.70;;;11.43;;
21438;SDS011;10880;50.302;18.736;2023-03-03T08:19:26;29.17;;;9.47;;
21438;SDS011;10880;50.302;18.736;2023-03-03T08:21:58;20.07;;;7.67;;
21438;SDS011;10880;50.302;18.736;2023-03-03T08:24:34;19.23;;;7.10;;
21438;SDS011;10880;50.302;18.736;2023-03-03T08:27:00;22.67;;;8.67;;
21438;SDS011;10880;50.302;18.736;2023-03-03T08:29:27;22.50;;;8.07;;
21438;SDS011;10880;50.302;18.736;2023-03-03T08:31:54;18.20;;;7.50;;
21438;SDS011;10880;50.302;18.736;2023-03-03T08:34:27;16.77;;;7.20;;
21438;SDS011;10880;50.302;18.736;2023-03-03T08:36:53;20.27;;;7.87;;
21438;SDS011;10880;50.302;18.736;2023-03-03T08:39:23;18.33;;;8.47;;
21438;SDS011;10880;50.302;18.736;2023-03-03T08:41:50;19.47;;;8.30;;
21438;SDS011;10880;50.302;18.736;2023-03-03T08:44:16;15.00;;;6.80;;
21438;SDS011;10880;50.302;18.736;2023-03-03T08:46:45;18.20;;;7.30;;
21438;SDS011;10880;50.302;18.736;2023-03-03T08:49:11;10.97;;;5.27;;
21438;SDS011;10880;50.302;18.736;2023-03-03T08:51:38;16.80;;;7.90;;
21438;SDS011;10880;50.302;18.736;2023-03-03T08:54:05;16.93;;;6.83;;
21438;SDS011;10880;50.302;18.736;2023-03-03T08:56:32;13.97;;;6.37;;
21438;SDS011;10880;50.302;18.736;2023-03-03T08:58:59;10.00;;;5.30;;
21438;SDS011;10880;50.302;18.736;2023-03-03T09:01:26;15.77;;;6.63;;
21438;SDS011;10880;50.302;18.736;2023-03-03T09:03:52;16.80;;;7.33;;
21438;SDS011;10880;50.302;18.736;2023-03-03T09:06:19;16.30;;;7.70;;
21438;SDS011;10880;50.302;18.736;2023-03-03T09:08:46;16.47;;;7.00;;
21438;SDS011;10880;50.302;18.736;2023-03-03T09:11:14;12.17;;;6.00;;
21438;SDS011;10880;50.302;18.736;2023-03-03T09:13:49;15.07;;;6.33;;
21438;SDS011;10880;50.302;18.736;2023-03-03T09:16:18;16.57;;;7.10;;
21438;SDS011;10880;50.302;18.736;2023-03-03T09:18:47;25.97;;;10.20;;
21438;SDS011;10880;50.302;18.736;2023-03-03T09:21:20;22.57;;;8.20;;
21438;SDS011;10880;50.302;18.736;2023-03-03T09:34:19;29.40;;;10.40;;
21438;SDS011;10880;50.302;18.736;2023-03-03T09:36:53;24.77;;;8.83;;
21438;SDS011;10880;50.302;18.736;2023-03-03T09:39:21;21.33;;;8.23;;
21438;SDS011;10880;50.302;18.736;2023-03-03T09:44:47;79.73;;;23.37;;
21438;SDS011;10880;50.302;18.736;2023-03-03T10:08:27;15.87;;;7.50;;
21438;SDS011;10880;50.302;18.736;2023-03-03T10:11:21;13.27;;;6.00;;
21438;SDS011;10880;50.302;18.736;2023-03-03T10:16:52;23.93;;;9.23;;
21438;SDS011;10880;50.302;18.736;2023-03-03T10:24:41;24.67;;;10.60;;
21438;SDS011;10880;50.302;18.736;2023-03-03T10:32:45;22.40;;;9.10;;
21438;SDS011;10880;50.302;18.736;2023-03-03T10:38:30;16.90;;;7.63;;
21438;SDS011;10880;50.302;18.736;2023-03-03T10:52:29;17.03;;;7.57;;
21438;SDS011;10880;50.302;18.736;2023-03-03T11:05:50;19.30;;;7.27;;
21438;SDS011;10880;50.302;18.736;2023-03-03T11:08:27;17.73;;;7.73;;
21438;SDS011;10880;50.302;18.736;2023-03-03T11:13:57;11.13;;;5.67;;
21438;SDS011;10880;50.302;18.736;2023-03-03T11:16:41;11.73;;;5.80;;
21438;SDS011;10880;50.302;18.736;2023-03-03T11:19:11;15.33;;;6.27;;
21438;SDS011;10880;50.302;18.736;2023-03-03T11:29:57;15.70;;;7.90;;
21438;SDS011;10880;50.302;18.736;2023-03-03T11:43:49;11.43;;;5.13;;
21438;SDS011;10880;50.302;18.736;2023-03-03T11:46:21;11.43;;;5.10;;
21438;SDS011;10880;50.302;18.736;2023-03-03T11:48:54;10.87;;;5.40;;
21438;SDS011;10880;50.302;18.736;2023-03-03T11:56:58;10.77;;;4.77;;
21438;SDS011;10880;50.302;18.736;2023-03-03T12:04:46;16.63;;;7.30;;
21438;SDS011;10880;50.302;18.736;2023-03-03T12:10:06;12.03;;;6.10;;
21438;SDS011;10880;50.302;18.736;2023-03-03T12:18:48;11.33;;;5.80;;
21438;SDS011;10880;50.302;18.736;2023-03-03T12:21:45;11.73;;;5.87;;
21438;SDS011;10880;50.302;18.736;2023-03-03T12:30:18;8.87;;;4.70;;
21438;SDS011;10880;50.302;18.736;2023-03-03T12:35:46;17.90;;;7.93;;
21438;SDS011;10880;50.302;18.736;2023-03-03T12:44:01;13.10;;;6.53;;
21438;SDS011;10880;50.302;18.736;2023-03-03T12:55:24;13.50;;;6.80;;
21438;SDS011;10880;50.302;18.736;2023-03-03T12:58:18;13.67;;;6.87;;
21438;SDS011;10880;50.302;18.736;2023-03-03T13:03:37;15.47;;;7.30;;
21438;SDS011;10880;50.302;18.736;2023-03-03T13:17:26;16.83;;;8.23;;
21438;SDS011;10880;50.302;18.736;2023-03-03T13:20:02;12.93;;;6.97;;
21438;SDS011;10880;50.302;18.736;2023-03-03T13:23:03;12.70;;;6.50;;
21438;SDS011;10880;50.302;18.736;2023-03-03T13:31:25;13.67;;;7.40;;
21438;SDS011;10880;50.302;18.736;2023-03-03T13:33:58;16.10;;;7.93;;
21438;SDS011;10880;50.302;18.736;2023-03-03T13:36:36;11.90;;;6.33;;
21438;SDS011;10880;50.302;18.736;2023-03-03T13:39:28;10.47;;;5.47;;
21438;SDS011;10880;50.302;18.736;2023-03-03T13:42:00;13.57;;;6.90;;
21438;SDS011;10880;50.302;18.736;2023-03-03T13:44:50;15.73;;;7.53;;
21438;SDS011;10880;50.302;18.736;2023-03-03T13:55:29;12.17;;;6.97;;
21438;SDS011;10880;50.302;18.736;2023-03-03T13:58:18;10.97;;;6.13;;
21438;SDS011;10880;50.302;18.736;2023-03-03T14:06:21;10.87;;;5.70;;
21438;SDS011;10880;50.302;18.736;2023-03-03T14:19:47;34.53;;;13.20;;
21438;SDS011;10880;50.302;18.736;2023-03-03T14:25:15;19.67;;;8.90;;
21438;SDS011;10880;50.302;18.736;2023-03-03T14:33:06;14.83;;;8.37;;
21438;SDS011;10880;50.302;18.736;2023-03-03T14:43:35;14.57;;;8.30;;
21438;SDS011;10880;50.302;18.736;2023-03-03T14:46:28;12.93;;;7.97;;
21438;SDS011;10880;50.302;18.736;2023-03-03T14:48:59;17.27;;;8.70;;
21438;SDS011;10880;50.302;18.736;2023-03-03T14:51:44;17.43;;;9.37;;
21438;SDS011;10880;50.302;18.736;2023-03-03T14:56:59;22.93;;;10.57;;
21438;SDS011;10880;50.302;18.736;2023-03-03T14:59:32;15.13;;;8.07;;
21438;SDS011;10880;50.302;18.736;2023-03-03T15:02:02;19.37;;;9.17;;
21438;SDS011;10880;50.302;18.736;2023-03-03T15:04:33;13.23;;;7.40;;
21438;SDS011;10880;50.302;18.736;2023-03-03T15:07:00;16.17;;;8.00;;
21438;SDS011;10880;50.302;18.736;2023-03-03T15:09:57;14.67;;;7.83;;
21438;SDS011;10880;50.302;18.736;2023-03-03T15:12:36;12.73;;;6.93;;
21438;SDS011;10880;50.302;18.736;2023-03-03T15:17:36;10.17;;;5.63;;
21438;SDS011;10880;50.302;18.736;2023-03-03T15:20:22;9.47;;;5.77;;
21438;SDS011;10880;50.302;18.736;2023-03-03T15:34:25;18.53;;;8.27;;
21438;SDS011;10880;50.302;18.736;2023-03-03T15:39:56;16.07;;;7.37;;
21438;SDS011;10880;50.302;18.736;2023-03-03T15:43:05;15.77;;;6.90;;
21438;SDS011;10880;50.302;18.736;2023-03-03T15:45:28;15.83;;;6.77;;
21438;SDS011;10880;50.302;18.736;2023-03-03T15:56:19;21.50;;;10.17;;
21438;SDS011;10880;50.302;18.736;2023-03-03T16:01:45;25.87;;;10.90;;
21438;SDS011;10880;50.302;18.736;2023-03-03T16:04:41;25.77;;;11.10;;
21438;SDS011;10880;50.302;18.736;2023-03-03T16:18:14;17.90;;;8.57;;
21438;SDS011;10880;50.302;18.736;2023-03-03T16:24:16;16.20;;;7.70;;
21438;SDS011;10880;50.302;18.736;2023-03-03T16:26:57;26.77;;;11.20;;
21438;SDS011;10880;50.302;18.736;2023-03-03T16:37:35;17.80;;;7.30;;
21438;SDS011;10880;50.302;18.736;2023-03-03T16:40:35;21.60;;;8.80;;
21438;SDS011;10880;50.302;18.736;2023-03-03T16:45:39;13.87;;;7.20;;
21438;SDS011;10880;50.302;18.736;2023-03-03T16:56:27;15.63;;;7.43;;
21438;SDS011;10880;50.302;18.736;2023-03-03T17:01:41;11.33;;;5.53;;
21438;SDS011;10880;50.302;18.736;2023-03-03T17:04:14;10.63;;;5.70;;
21438;SDS011;10880;50.302;18.736;2023-03-03T17:10:00;16.70;;;7.00;;
21438;SDS011;10880;50.302;18.736;2023-03-03T17:12:39;16.07;;;7.50;;
21438;SDS011;10880;50.302;18.736;2023-03-03T17:18:31;29.47;;;10.50;;
21438;SDS011;10880;50.302;18.736;2023-03-03T17:24:12;18.13;;;8.03;;
21438;SDS011;10880;50.302;18.736;2023-03-03T17:27:06;15.30;;;7.37;;
21438;SDS011;10880;50.302;18.736;2023-03-03T17:32:24;16.60;;;7.97;;
21438;SDS011;10880;50.302;18.736;2023-03-03T17:38:01;14.63;;;7.07;;
21438;SDS011;10880;50.302;18.736;2023-03-03T17:40:46;18.07;;;8.13;;
21438;SDS011;10880;50.302;18.736;2023-03-03T17:43:20;14.60;;;7.47;;
21438;SDS011;10880;50.302;18.736;2023-03-03T17:45:55;14.63;;;7.53;;
21438;SDS011;10880;50.302;18.736;2023-03-03T17:56:28;17.33;;;8.00;;
21438;SDS011;10880;50.302;18.736;2023-03-03T18:07:15;16.53;;;8.07;;
21438;SDS011;10880;50.302;18.736;2023-03-03T18:15:04;12.70;;;6.60;;
21438;SDS011;10880;50.302;18.736;2023-03-03T18:20:20;11.53;;;6.67;;
21438;SDS011;10880;50.302;18.736;2023-03-03T18:22:51;10.63;;;5.83;;
21438;SDS011;10880;50.302;18.736;2023-03-03T18:28:15;11.90;;;6.00;;
21438;SDS011;10880;50.302;18.736;2023-03-03T18:30:52;23.00;;;10.03;;
21438;SDS011;10880;50.302;18.736;2023-03-03T18:33:39;14.90;;;7.23;;
21438;SDS011;10880;50.302;18.736;2023-03-03T18:38:53;8.67;;;5.07;;
21438;SDS011;10880;50.302;18.736;2023-03-03T18:41:24;9.77;;;5.57;;
21438;SDS011;10880;50.302;18.736;2023-03-03T18:43:53;11.47;;;6.13;;
21438;SDS011;10880;50.302;18.736;2023-03-03T18:49:08;10.43;;;5.23;;
21438;SDS011;10880;50.302;18.736;2023-03-03T19:05:15;12.33;;;6.03;;
21438;SDS011;10880;50.302;18.736;2023-03-03T19:07:48;11.40;;;6.07;;
21438;SDS011;10880;50.302;18.736;2023-03-03T19:13:07;14.97;;;6.93;;
21438;SDS011;10880;50.302;18.736;2023-03-03T19:34:45;12.20;;;6.13;;
21438;SDS011;10880;50.302;18.736;2023-03-03T19:37:33;9.77;;;5.63;;
21438;SDS011;10880;50.302;18.736;2023-03-03T19:48:57;21.07;;;8.83;;
21438;SDS011;10880;50.302;18.736;2023-03-03T19:54:26;13.17;;;6.73;;
21438;SDS011;10880;50.302;18.736;2023-03-03T19:57:16;18.30;;;7.83;;
21438;SDS011;10880;50.302;18.736;2023-03-03T19:59:55;17.73;;;8.00;;
21438;SDS011;10880;50.302;18.736;2023-03-03T20:08:22;14.63;;;6.80;;
21438;SDS011;10880;50.302;18.736;2023-03-03T20:11:01;23.13;;;9.20;;
21438;SDS011;10880;50.302;18.736;2023-03-03T20:19:01;15.27;;;7.13;;
21438;SDS011;10880;50.302;18.736;2023-03-03T20:38:16;12.43;;;6.67;;
21438;SDS011;10880;50.302;18.736;2023-03-03T20:43:49;16.37;;;7.90;;
21438;SDS011;10880;50.302;18.736;2023-03-03T20:49:57;16.13;;;6.83;;
21438;SDS011;10880;50.302;18.736;2023-03-03T20:54:57;10.77;;;5.57;;
21438;SDS011;10880;50.302;18.736;2023-03-03T21:05:19;10.80;;;5.80;;
21438;SDS011;10880;50.302;18.736;2023-03-03T21:10:22;17.17;;;8.87;;
21438;SDS011;10880;50.302;18.736;2023-03-03T21:12:52;13.43;;;7.03;;
21438;SDS011;10880;50.302;18.736;2023-03-03T21:15:29;12.77;;;6.93;;
21438;SDS011;10880;50.302;18.736;2023-03-03T21:17:58;12.73;;;6.93;;
21438;SDS011;10880;50.302;18.736;2023-03-03T21:20:43;11.47;;;6.47;;
21438;SDS011;10880;50.302;18.736;2023-03-03T21:23:10;11.33;;;6.30;;
21438;SDS011;10880;50.302;18.736;2023-03-03T21:28:17;12.93;;;6.43;;
21438;SDS011;10880;50.302;18.736;2023-03-03T21:33:56;13.10;;;6.80;;
21438;SDS011;10880;50.302;18.736;2023-03-03T21:39:18;10.30;;;5.70;;
21438;SDS011;10880;50.302;18.736;2023-03-03T21:44:31;17.57;;;9.03;;
21438;SDS011;10880;50.302;18.736;2023-03-03T21:46:58;17.00;;;7.93;;
21438;SDS011;10880;50.302;18.736;2023-03-03T21:49:26;13.47;;;7.53;;
21438;SDS011;10880;50.302;18.736;2023-03-03T21:51:54;13.83;;;6.87;;
21438;SDS011;10880;50.302;18.736;2023-03-03T21:54:25;14.17;;;7.33;;
21438;SDS011;10880;50.302;18.736;2023-03-03T21:57:02;17.40;;;8.30;;
21438;SDS011;10880;50.302;18.736;2023-03-03T21:59:29;14.47;;;7.77;;
21438;SDS011;10880;50.302;18.736;2023-03-03T22:01:56;12.33;;;6.70;;
21438;SDS011;10880;50.302;18.736;2023-03-03T22:04:22;15.50;;;7.70;;
21438;SDS011;10880;50.302;18.736;2023-03-03T22:06:48;14.00;;;7.30;;